Baconton, Georgia
Current Conditions -  °F | °C
As of 3:53 AM on Sunday 23 Nov 2014 (Local Time) from KABY Reporting Station
Overcast Overcast  
Wind Chill: 61°   Ceiling: 800
Heat Index: 61°   Visibility: 6mi
Dew Point: 60°   Wind: 9mph
Humidity: 97%   Direction: 70°ENE
Pressure: 30.02"   Gusts: NA
Location:  31.38°N, 84.16°W
Report Text: KABY 230853Z 07008KT 6SM OVC008 16/16 A3002 RMK AO2 PRESFR SLP165 P0023 60097 T01610156 56023
Loading
Personal Weather Stations






























Interactive Weather Map New forecast layout! Learn more

10-Day Weather Forecast

Advertisements
Track Severe Weather on mobile